createdAt,value
2022-11-29T00:01:34.766Z,62.40
2022-11-29T00:04:02.583Z,62.40
2022-11-29T00:06:31.903Z,62.40
2022-11-29T00:09:01.319Z,62.50
2022-11-29T00:11:50.828Z,62.40
2022-11-29T00:14:18.999Z,62.30
2022-11-29T00:16:49.756Z,62.30
2022-11-29T00:19:16.777Z,62.30
2022-11-29T00:21:43.374Z,61.90
2022-11-29T00:24:10.152Z,62.50
2022-11-29T00:26:37.128Z,62.60
2022-11-29T00:29:04.172Z,62.60
2022-11-29T00:31:32.710Z,62.70
2022-11-29T00:34:01.484Z,62.70
2022-11-29T00:36:28.910Z,62.60
2022-11-29T00:38:55.714Z,62.70
2022-11-29T00:41:22.344Z,62.70
2022-11-29T00:43:48.971Z,62.80
2022-11-29T00:46:15.911Z,62.70
2022-11-29T00:48:42.623Z,62.70
2022-11-29T00:51:09.416Z,62.60
2022-11-29T00:53:37.059Z,62.70
2022-11-29T00:56:04.987Z,62.70
2022-11-29T00:58:32.117Z,62.70
2022-11-29T01:00:58.811Z,62.60
2022-11-29T01:03:25.543Z,62.60
2022-11-29T01:05:52.447Z,62.60
2022-11-29T01:08:19.503Z,62.50
2022-11-29T01:10:46.143Z,62.50
2022-11-29T01:13:12.752Z,62.50
2022-11-29T01:15:39.399Z,62.50
2022-11-29T01:18:06.071Z,62.40
2022-11-29T01:20:35.071Z,62.50
2022-11-29T01:23:01.735Z,62.50
2022-11-29T01:25:29.270Z,62.40
2022-11-29T01:27:55.851Z,62.50
2022-11-29T01:30:22.493Z,62.40
2022-11-29T01:32:49.652Z,61.80
2022-11-29T01:35:16.279Z,62.40
2022-11-29T01:37:42.863Z,62.50
2022-11-29T01:40:09.772Z,62.40
2022-11-29T01:42:36.343Z,62.40
2022-11-29T01:45:25.488Z,62.40
2022-11-29T01:47:56.502Z,62.40
2022-11-29T01:50:23.260Z,62.40
2022-11-29T01:52:49.994Z,62.40
2022-11-29T01:55:17.555Z,62.40
2022-11-29T01:57:45.112Z,63.10
2022-11-29T02:00:15.388Z,62.30
2022-11-29T02:02:53.681Z,62.30
2022-11-29T02:05:21.295Z,62.30
2022-11-29T02:07:51.773Z,62.30
2022-11-29T02:10:18.753Z,62.30
2022-11-29T02:13:04.831Z,62.30
2022-11-29T02:15:50.898Z,60.20
2022-11-29T02:18:36.563Z,62.20
2022-11-29T02:21:23.026Z,62.20
2022-11-29T02:24:10.892Z,62.10
2022-11-29T02:26:59.343Z,62.00
2022-11-29T02:30:06.420Z,62.00
2022-11-29T02:32:49.948Z,62.20
2022-11-29T02:35:43.252Z,62.10
2022-11-29T02:38:43.711Z,62.10
2022-11-29T02:41:30.778Z,62.00
2022-11-29T02:44:27.708Z,62.00
2022-11-29T02:47:07.744Z,62.00
2022-11-29T02:50:12.254Z,62.00
2022-11-29T02:52:52.641Z,61.90
2022-11-29T02:56:08.188Z,61.80
2022-11-29T02:59:06.159Z,61.90
2022-11-29T03:02:02.380Z,61.80
2022-11-29T03:04:34.931Z,61.80
2022-11-29T03:07:04.104Z,61.70
2022-11-29T03:09:40.097Z,61.60
2022-11-29T03:12:19.111Z,61.50
2022-11-29T03:14:56.659Z,61.50
2022-11-29T03:17:36.845Z,61.50
2022-11-29T03:20:37.466Z,61.60
2022-11-29T03:23:34.019Z,61.50
2022-11-29T03:26:17.342Z,60.60
2022-11-29T03:28:54.576Z,61.50
2022-11-29T03:31:29.895Z,61.40
2022-11-29T03:34:24.852Z,61.40
2022-11-29T03:36:56.852Z,61.40
2022-11-29T03:39:48.959Z,61.40
2022-11-29T03:42:25.241Z,61.40
2022-11-29T03:45:04.731Z,61.30
2022-11-29T03:47:36.577Z,61.30
2022-11-29T03:50:08.003Z,61.30
2022-11-29T03:53:03.559Z,61.30
2022-11-29T03:55:50.256Z,61.30
2022-11-29T03:58:28.896Z,61.30
2022-11-29T04:01:29.191Z,61.30
2022-11-29T04:04:35.404Z,61.30
2022-11-29T04:07:36.510Z,61.30
2022-11-29T04:10:24.566Z,61.30
2022-11-29T04:13:16.109Z,60.70
2022-11-29T04:16:09.935Z,61.40
2022-11-29T04:18:48.684Z,61.40
2022-11-29T04:21:31.368Z,60.70
2022-11-29T04:24:22.776Z,61.40
2022-11-29T04:27:09.029Z,61.30
2022-11-29T04:29:50.953Z,61.40
2022-11-29T04:32:26.942Z,61.40
2022-11-29T04:35:14.464Z,61.20
2022-11-29T04:38:25.062Z,61.30
2022-11-29T04:41:24.515Z,60.50
2022-11-29T04:44:05.543Z,61.10
2022-11-29T04:46:56.834Z,61.00
2022-11-29T04:49:45.227Z,61.10
2022-11-29T04:52:17.622Z,60.90
2022-11-29T04:55:05.988Z,61.00
2022-11-29T04:57:36.092Z,60.90
2022-11-29T05:00:11.753Z,60.90
2022-11-29T05:03:00.526Z,60.90
2022-11-29T05:05:41.795Z,61.20
2022-11-29T05:08:26.351Z,61.10
2022-11-29T05:10:55.933Z,61.20
2022-11-29T05:13:47.437Z,61.60
2022-11-29T05:16:52.849Z,61.70
2022-11-29T05:19:33.716Z,61.70
2022-11-29T05:22:22.803Z,61.60
2022-11-29T05:25:02.720Z,61.50
2022-11-29T05:27:54.517Z,61.70
2022-11-29T05:30:23.595Z,61.70
2022-11-29T05:33:05.267Z,62.00
2022-11-29T05:35:51.892Z,61.90
2022-11-29T05:38:49.485Z,62.20
2022-11-29T05:41:27.937Z,62.30
2022-11-29T05:44:08.453Z,62.30
2022-11-29T05:46:58.660Z,62.30
2022-11-29T05:49:33.855Z,62.20
2022-11-29T05:52:17.524Z,62.20
2022-11-29T05:55:02.955Z,62.10
2022-11-29T05:57:41.258Z,62.20
2022-11-29T06:00:11.930Z,62.10
2022-11-29T06:02:52.136Z,61.90
2022-11-29T06:05:50.999Z,62.00
2022-11-29T06:08:34.071Z,61.90
2022-11-29T06:11:13.118Z,61.80
2022-11-29T06:13:50.812Z,61.70
2022-11-29T06:16:39.137Z,61.60
2022-11-29T06:19:25.629Z,61.50
2022-11-29T06:22:16.833Z,61.60
2022-11-29T06:24:57.030Z,61.50
2022-11-29T06:27:57.447Z,61.50
2022-11-29T06:30:30.119Z,61.50
2022-11-29T06:33:20.160Z,61.50
2022-11-29T06:36:16.081Z,61.50
2022-11-29T06:38:42.956Z,61.40
2022-11-29T06:41:16.209Z,61.40
2022-11-29T06:43:43.104Z,61.50
2022-11-29T06:46:22.796Z,61.40
2022-11-29T06:49:16.803Z,61.30
2022-11-29T06:52:01.057Z,60.90
2022-11-29T06:54:55.247Z,61.50
2022-11-29T06:57:55.010Z,61.40
2022-11-29T07:00:29.149Z,61.40
2022-11-29T07:03:25.629Z,60.80
2022-11-29T07:05:52.526Z,61.50
2022-11-29T07:08:22.957Z,61.50
2022-11-29T07:10:53.100Z,61.50
2022-11-29T07:13:20.884Z,61.50
2022-11-29T07:16:15.085Z,61.50
2022-11-29T07:19:07.027Z,61.40
2022-11-29T07:21:42.215Z,61.30
2022-11-29T07:24:32.127Z,61.50
2022-11-29T07:27:16.857Z,61.60
2022-11-29T07:30:00.582Z,61.50
2022-11-29T07:32:47.298Z,61.50
2022-11-29T07:35:24.635Z,61.50
2022-11-29T07:38:10.327Z,61.60
2022-11-29T07:40:53.833Z,61.50
2022-11-29T07:43:51.859Z,61.50
2022-11-29T07:46:18.641Z,61.50
2022-11-29T07:48:45.275Z,61.50
2022-11-29T07:51:12.391Z,61.50
2022-11-29T07:53:42.870Z,61.50
2022-11-29T07:56:09.633Z,61.50
2022-11-29T07:58:36.399Z,61.50
2022-11-29T08:01:04.184Z,61.50
2022-11-29T08:03:30.887Z,61.50
2022-11-29T08:05:57.510Z,61.50
2022-11-29T08:08:24.105Z,61.50
2022-11-29T08:10:50.726Z,61.40
2022-11-29T08:13:20.355Z,61.40
2022-11-29T08:15:48.181Z,61.50
2022-11-29T08:18:16.126Z,61.50
2022-11-29T08:20:43.218Z,60.90
2022-11-29T08:23:12.810Z,60.80
2022-11-29T08:25:39.686Z,61.40
2022-11-29T08:28:06.392Z,61.40
2022-11-29T08:30:33.153Z,61.40
2022-11-29T08:32:59.870Z,61.40
2022-11-29T08:35:26.451Z,61.40
2022-11-29T08:37:54.427Z,61.40
2022-11-29T08:40:21.242Z,61.40
2022-11-29T08:42:47.835Z,61.40
2022-11-29T08:45:14.591Z,61.40
2022-11-29T08:47:42.284Z,61.40
2022-11-29T08:50:14.204Z,61.40
2022-11-29T08:53:01.761Z,61.50
2022-11-29T08:55:32.881Z,61.40
2022-11-29T08:58:06.150Z,61.40
2022-11-29T09:00:34.245Z,61.30
2022-11-29T09:03:24.147Z,60.80
2022-11-29T09:05:51.284Z,61.30
2022-11-29T09:08:18.263Z,61.30
2022-11-29T09:10:45.401Z,61.40
2022-11-29T09:13:12.627Z,61.30
2022-11-29T09:15:41.754Z,61.40
2022-11-29T09:18:08.351Z,61.30
2022-11-29T09:20:35.108Z,61.30
2022-11-29T09:23:02.064Z,61.20
2022-11-29T09:25:29.141Z,61.40
2022-11-29T09:27:59.051Z,61.30
2022-11-29T09:30:26.361Z,61.20
2022-11-29T09:32:52.950Z,61.30
2022-11-29T09:35:19.549Z,61.40
2022-11-29T09:37:46.164Z,61.30
2022-11-29T09:40:19.470Z,61.30
2022-11-29T09:43:02.299Z,61.30
2022-11-29T09:45:35.564Z,61.10
2022-11-29T09:48:28.271Z,61.30
2022-11-29T09:51:20.323Z,60.60
2022-11-29T09:54:01.901Z,61.30
2022-11-29T09:56:41.632Z,61.30
2022-11-29T09:59:25.811Z,61.30
2022-11-29T10:02:21.662Z,61.20
2022-11-29T10:05:30.816Z,61.30
2022-11-29T10:08:09.632Z,61.20
2022-11-29T10:10:50.407Z,61.20
2022-11-29T10:13:31.247Z,61.20
2022-11-29T10:16:15.722Z,61.20
2022-11-29T10:18:51.182Z,61.20
2022-11-29T10:21:42.657Z,61.20
2022-11-29T10:24:17.677Z,61.20
2022-11-29T10:26:44.385Z,61.20
2022-11-29T10:29:14.972Z,61.20
2022-11-29T10:31:46.395Z,61.20
2022-11-29T10:34:16.508Z,61.20
2022-11-29T10:36:59.400Z,61.20
2022-11-29T10:39:42.191Z,61.20
2022-11-29T10:42:35.974Z,61.20
2022-11-29T10:45:04.289Z,61.20
2022-11-29T10:47:32.073Z,61.20
2022-11-29T10:49:58.994Z,61.20
2022-11-29T10:52:25.613Z,61.20
2022-11-29T10:54:57.491Z,61.20
2022-11-29T10:57:24.190Z,61.20
2022-11-29T11:00:04.359Z,61.20
2022-11-29T11:02:31.417Z,61.20
2022-11-29T11:04:59.134Z,61.10
2022-11-29T11:07:31.040Z,61.20
2022-11-29T11:09:59.232Z,61.20
2022-11-29T11:12:34.539Z,61.50
2022-11-29T11:15:28.403Z,61.20
2022-11-29T11:17:57.984Z,61.20
2022-11-29T11:20:27.284Z,61.20
2022-11-29T11:23:02.641Z,61.20
2022-11-29T11:25:38.839Z,61.20
2022-11-29T11:28:46.705Z,61.20
2022-11-29T11:31:14.398Z,61.20
2022-11-29T11:33:43.914Z,61.20
2022-11-29T11:36:15.111Z,62.20
2022-11-29T11:38:51.133Z,61.20
2022-11-29T11:41:50.139Z,61.20
2022-11-29T11:47:45.174Z,61.20
2022-11-29T11:50:16.408Z,61.20
2022-11-29T11:52:52.249Z,60.60
2022-11-29T11:55:21.937Z,61.20
2022-11-29T11:58:07.687Z,61.10
2022-11-29T12:01:04.412Z,61.20
2022-11-29T12:03:43.860Z,61.20
2022-11-29T12:06:25.619Z,61.20
2022-11-29T12:08:57.604Z,61.20
2022-11-29T12:11:25.453Z,61.20
2022-11-29T12:13:56.674Z,61.20
2022-11-29T12:16:31.760Z,61.20
2022-11-29T12:19:21.512Z,61.20
2022-11-29T12:21:55.940Z,61.20
2022-11-29T12:24:35.288Z,61.20
2022-11-29T12:27:05.235Z,61.20
2022-11-29T12:29:34.237Z,61.20
2022-11-29T12:32:14.692Z,61.10
2022-11-29T12:34:59.368Z,61.20
2022-11-29T12:37:50.836Z,61.20
2022-11-29T12:40:38.495Z,61.20
2022-11-29T12:43:15.266Z,61.20
2022-11-29T12:45:52.439Z,61.20
2022-11-29T12:48:37.780Z,61.20
2022-11-29T12:51:27.583Z,61.10
2022-11-29T12:54:13.361Z,61.10
2022-11-29T12:56:45.508Z,61.20
2022-11-29T12:59:38.797Z,61.10
2022-11-29T13:02:23.927Z,61.10
2022-11-29T13:04:59.393Z,61.20
2022-11-29T13:07:26.479Z,61.40
2022-11-29T13:10:10.437Z,61.40
2022-11-29T13:12:44.644Z,61.40
2022-11-29T13:15:18.917Z,61.40
2022-11-29T13:18:02.517Z,61.40
2022-11-29T13:20:38.260Z,61.40
2022-11-29T13:23:39.055Z,61.40
2022-11-29T13:26:12.480Z,61.40
2022-11-29T13:28:42.463Z,61.40
2022-11-29T13:31:21.071Z,61.50
2022-11-29T13:33:58.831Z,61.50
2022-11-29T13:36:31.963Z,61.60
2022-11-29T13:39:10.570Z,61.60
2022-11-29T13:42:18.410Z,61.10
2022-11-29T13:45:04.312Z,61.70
2022-11-29T13:47:30.977Z,61.80
2022-11-29T13:50:04.277Z,61.80
2022-11-29T13:52:46.237Z,61.80
2022-11-29T13:55:12.865Z,61.90
2022-11-29T14:00:42.520Z,61.90
2022-11-29T14:03:24.050Z,62.00
2022-11-29T14:05:52.032Z,62.00
2022-11-29T14:08:48.167Z,61.90
2022-11-29T14:11:24.709Z,62.00
2022-11-29T14:13:59.165Z,62.00
2022-11-29T14:16:30.379Z,62.00
2022-11-29T14:19:05.522Z,62.10
2022-11-29T14:22:01.728Z,62.10
2022-11-29T14:24:37.029Z,62.00
2022-11-29T14:27:06.605Z,62.00
2022-11-29T14:29:48.903Z,62.00
2022-11-29T14:32:26.902Z,62.00
2022-11-29T14:35:11.400Z,62.00
2022-11-29T14:38:19.775Z,62.10
2022-11-29T14:40:57.736Z,62.10
2022-11-29T14:43:35.383Z,62.10
2022-11-29T14:46:15.041Z,62.00
2022-11-29T14:48:56.931Z,62.10
2022-11-29T14:51:25.855Z,62.10
2022-11-29T14:54:06.419Z,62.10
2022-11-29T14:56:34.935Z,62.10
2022-11-29T14:59:39.952Z,62.00
2022-11-29T15:02:28.521Z,62.10
2022-11-29T15:04:57.128Z,62.00
2022-11-29T15:07:33.569Z,62.10
2022-11-29T15:10:04.287Z,62.10
2022-11-29T15:12:36.005Z,61.50
2022-11-29T15:15:31.605Z,62.20
2022-11-29T15:18:21.886Z,62.10
2022-11-29T15:21:13.837Z,62.10
2022-11-29T15:23:42.448Z,62.10
2022-11-29T15:26:20.654Z,62.10
2022-11-29T15:28:47.459Z,62.10
2022-11-29T15:31:18.631Z,62.10
2022-11-29T15:33:48.526Z,62.10
2022-11-29T15:36:20.914Z,62.00
2022-11-29T15:38:51.513Z,62.10
2022-11-29T15:41:20.698Z,62.00
2022-11-29T15:43:53.801Z,61.30
2022-11-29T15:46:24.431Z,62.00
2022-11-29T15:48:51.195Z,62.00
2022-11-29T15:51:30.500Z,61.40
2022-11-29T15:54:13.716Z,62.00
2022-11-29T15:56:44.695Z,62.00
2022-11-29T15:59:45.690Z,62.00
2022-11-29T16:02:31.152Z,62.00
2022-11-29T16:05:02.740Z,61.90
2022-11-29T16:07:32.605Z,61.90
2022-11-29T16:10:11.638Z,62.00
2022-11-29T16:12:54.537Z,61.90
2022-11-29T16:15:32.948Z,61.90
2022-11-29T16:18:25.969Z,61.90
2022-11-29T16:21:00.848Z,61.90
2022-11-29T16:23:36.182Z,62.00
2022-11-29T16:26:18.950Z,62.00
2022-11-29T16:28:48.371Z,62.00
2022-11-29T16:31:18.082Z,61.30
2022-11-29T16:33:47.343Z,61.90
2022-11-29T16:36:18.739Z,61.10
2022-11-29T16:38:47.593Z,62.00
2022-11-29T16:41:32.569Z,62.20
2022-11-29T16:44:03.048Z,62.10
2022-11-29T16:46:32.705Z,62.20
2022-11-29T16:49:02.382Z,62.10
2022-11-29T16:51:37.589Z,62.10
2022-11-29T16:54:23.543Z,62.20
2022-11-29T16:56:52.575Z,62.30
2022-11-29T16:59:27.205Z,62.50
2022-11-29T17:01:56.068Z,63.20
2022-11-29T17:04:23.362Z,62.50
2022-11-29T17:06:55.146Z,62.50
2022-11-29T17:09:27.537Z,62.40
2022-11-29T17:11:55.375Z,62.50
2022-11-29T17:14:22.098Z,62.60
2022-11-29T17:16:49.549Z,62.60
2022-11-29T17:19:16.401Z,62.70
2022-11-29T17:21:43.375Z,62.50
2022-11-29T17:24:13.128Z,62.60
2022-11-29T17:26:40.940Z,62.50
2022-11-29T17:29:07.618Z,62.70
2022-11-29T17:31:34.307Z,62.80
2022-11-29T17:34:01.000Z,62.80
2022-11-29T17:36:28.258Z,62.90
2022-11-29T17:38:55.187Z,62.90
2022-11-29T17:41:23.829Z,62.90
2022-11-29T17:43:51.940Z,63.10
2022-11-29T17:46:30.665Z,63.10
2022-11-29T17:48:59.862Z,63.20
2022-11-29T17:51:51.083Z,62.60
2022-11-29T17:54:13.472Z,63.40
2022-11-29T17:56:40.081Z,63.40
2022-11-29T17:59:06.682Z,63.30
2022-11-29T18:01:35.665Z,63.40
2022-11-29T18:04:04.414Z,63.40
2022-11-29T18:06:35.351Z,63.40
2022-11-29T18:09:06.076Z,63.60
2022-11-29T18:11:44.956Z,63.60
2022-11-29T18:14:15.792Z,63.60
2022-11-29T18:16:42.881Z,63.50
2022-11-29T18:19:12.714Z,63.70
2022-11-29T18:21:39.387Z,63.70
2022-11-29T18:24:07.179Z,63.70
2022-11-29T18:26:35.570Z,63.60
2022-11-29T18:29:02.615Z,63.50
2022-11-29T18:31:32.104Z,63.50
2022-11-29T18:34:01.158Z,63.60
2022-11-29T18:36:31.846Z,63.70
2022-11-29T18:39:07.252Z,63.70
2022-11-29T18:41:34.163Z,63.60
2022-11-29T18:44:04.320Z,63.60
2022-11-29T18:46:35.587Z,63.60
2022-11-29T18:49:04.155Z,63.60
2022-11-29T18:51:31.662Z,63.60
2022-11-29T18:53:59.097Z,63.60
2022-11-29T18:56:28.721Z,63.60
2022-11-29T18:59:16.915Z,63.60
2022-11-29T19:01:46.057Z,63.60
2022-11-29T19:04:16.157Z,63.60
2022-11-29T19:06:43.859Z,63.70
2022-11-29T19:09:16.719Z,63.50
2022-11-29T19:11:43.495Z,63.60
2022-11-29T19:14:12.358Z,63.60
2022-11-29T19:16:42.139Z,63.60
2022-11-29T19:19:08.973Z,63.70
2022-11-29T19:21:35.747Z,63.50
2022-11-29T19:24:05.270Z,63.60
2022-11-29T19:26:34.266Z,63.50
2022-11-29T19:29:01.750Z,63.60
2022-11-29T19:31:28.895Z,65.40
2022-11-29T19:33:57.243Z,63.60
2022-11-29T19:36:29.190Z,63.50
2022-11-29T19:38:57.058Z,63.50
2022-11-29T19:41:29.155Z,62.90
2022-11-29T19:43:57.550Z,63.40
2022-11-29T19:46:27.153Z,63.40
2022-11-29T19:48:55.538Z,63.40
2022-11-29T19:51:23.367Z,63.30
2022-11-29T19:53:59.419Z,63.40
2022-11-29T19:56:26.799Z,63.40
2022-11-29T19:58:54.197Z,63.30
2022-11-29T20:01:27.887Z,62.80
2022-11-29T20:03:58.374Z,63.30
2022-11-29T20:06:29.075Z,63.30
2022-11-29T20:08:56.582Z,63.40
2022-11-29T20:11:24.963Z,63.30
2022-11-29T20:13:57.962Z,63.20
2022-11-29T20:16:25.898Z,63.20
2022-11-29T20:18:54.135Z,63.20
2022-11-29T20:21:23.995Z,63.20
2022-11-29T20:23:58.630Z,63.80
2022-11-29T20:26:26.559Z,63.10
2022-11-29T20:28:53.349Z,63.00
2022-11-29T20:31:22.802Z,62.90
2022-11-29T20:33:51.963Z,62.20
2022-11-29T20:36:42.193Z,63.60
2022-11-29T20:39:50.682Z,62.80
2022-11-29T20:42:29.569Z,62.80
2022-11-29T20:45:01.196Z,62.70
2022-11-29T20:47:41.571Z,62.70
2022-11-29T20:50:12.953Z,62.60
2022-11-29T20:52:50.974Z,62.60
2022-11-29T20:55:18.346Z,62.60
2022-11-29T20:57:45.044Z,62.60
2022-11-29T21:00:12.673Z,62.50
2022-11-29T21:02:39.487Z,62.50
2022-11-29T21:05:07.284Z,62.50
2022-11-29T21:07:34.158Z,62.40
2022-11-29T21:10:01.300Z,62.40
2022-11-29T21:12:30.154Z,62.40
2022-11-29T21:14:57.715Z,62.30
2022-11-29T21:17:30.211Z,62.30
2022-11-29T21:20:00.433Z,62.30
2022-11-29T21:23:02.474Z,62.30
2022-11-29T21:25:43.770Z,62.30
2022-11-29T21:28:15.757Z,62.20
2022-11-29T21:30:43.444Z,62.20
2022-11-29T21:33:11.438Z,62.20
2022-11-29T21:35:39.788Z,62.20
2022-11-29T21:38:10.748Z,62.20
2022-11-29T21:40:37.380Z,62.10
2022-11-29T21:43:03.955Z,62.10
2022-11-29T21:45:31.163Z,62.00
2022-11-29T21:48:00.491Z,62.00
2022-11-29T21:50:27.131Z,62.00
2022-11-29T21:52:53.798Z,61.40
2022-11-29T21:55:20.566Z,62.00
2022-11-29T21:57:47.231Z,62.00
2022-11-29T22:00:14.961Z,62.00
2022-11-29T22:02:41.670Z,62.00
2022-11-29T22:05:09.467Z,62.00
2022-11-29T22:07:36.175Z,62.00
2022-11-29T22:10:09.960Z,62.00
2022-11-29T22:12:49.344Z,62.00
2022-11-29T22:15:24.177Z,61.90
2022-11-29T22:17:51.352Z,61.90
2022-11-29T22:20:17.933Z,62.10
2022-11-29T22:22:45.199Z,62.10
2022-11-29T22:25:11.770Z,62.10
2022-11-29T22:27:38.386Z,62.10
2022-11-29T22:30:05.835Z,62.10
2022-11-29T22:32:34.228Z,62.20
2022-11-29T22:35:01.092Z,62.20
2022-11-29T22:37:28.258Z,62.20
2022-11-29T22:39:54.927Z,62.10
2022-11-29T22:42:21.554Z,62.10
2022-11-29T22:44:48.423Z,62.10
2022-11-29T22:47:15.234Z,62.10
2022-11-29T22:49:42.033Z,62.10
2022-11-29T22:52:08.646Z,61.50
2022-11-29T22:54:35.243Z,62.10
2022-11-29T22:57:01.810Z,62.10
2022-11-29T22:59:28.392Z,62.10
2022-11-29T23:01:55.063Z,62.10
2022-11-29T23:04:21.660Z,62.10
2022-11-29T23:06:48.282Z,62.10
2022-11-29T23:09:18.818Z,62.10
2022-11-29T23:11:46.406Z,62.10
2022-11-29T23:14:13.632Z,62.10
2022-11-29T23:16:40.499Z,62.10
2022-11-29T23:19:07.152Z,62.00
2022-11-29T23:21:37.217Z,62.10
2022-11-29T23:24:04.317Z,62.10
2022-11-29T23:26:36.330Z,62.00
2022-11-29T23:29:11.527Z,62.00
2022-11-29T23:31:38.684Z,62.00
2022-11-29T23:34:05.555Z,62.00
2022-11-29T23:36:32.658Z,61.90
2022-11-29T23:38:59.387Z,61.90
2022-11-29T23:41:26.483Z,61.80
2022-11-29T23:43:53.102Z,61.80
2022-11-29T23:46:24.063Z,61.80
2022-11-29T23:48:51.293Z,62.50
2022-11-29T23:51:18.827Z,62.50
2022-11-29T23:53:46.656Z,61.80
2022-11-29T23:56:16.191Z,61.80
2022-11-29T23:58:43.783Z,61.80
